Aviation Digital Data Service (ADDS)

Output produced by METARs form (2301 UTC 29 May 2020)
found at http://www.aviationweather.gov/metar/data/
 
Forecast for: WSSL (SINGAPORE/SELETA, SG)
Text: TAF WSSL 291700Z 2918/3100 12007KT 9999 FEW015 SCT020
Forecast period: 1800 UTC 29 May 2020 to 0000 UTC 31 May 2020
Forecast type: FROM: standard forecast or significant change
Winds: from the ESE (120 degrees) at 8 MPH (7 knots; 3.6 m/s)
Visibility: 6 or more miles 10+ km)
Ceiling: at least 12,000 feet AGL
Clouds: few clouds at 1500 feet AGL
scattered clouds at 2000 feet AGL
Weather: no significant weather forecast for this period
Text: TEMPO 3003/3006 3000 TSRA FEW012CB BKN015
Forecast period: 0300 to 0600 UTC 30 May 2020
Forecast type: TEMPORARY: The following changes expected for less than half the time period
Visibility: 1.86 miles (2.99 km)
Ceiling: 1500 feet AGL
Clouds: few clouds at 1200 feet AGL
broken clouds at 1500 feet AGL
Weather: TSRA  (rain associated with thunderstorm(s))